EHDL

Deelen Air Base Airport

Arnhem, The Netherlands
METAR EHDL 260255Z AUTO 03010KT 350V080 9999 SCT018 M05/M08 Q1031 WHT
Observed Flight Rules
Feb-26 @ 02:55 UTC (26 minutes ago) Visual Flight Rules
Wind Visibility Clouds
30° at 10 knots 10,000+ meters
  • Scattered at 1,800' AGL
Temperatures Readings
Current -5°C / 23°F
Dewpoint -8°C / 18°F
Humidity 80%
Altimeter 30.44" Hg
Pressure 1031 hPa
Elevation 52
METAR EHDL 260255Z AUTO 03010KT 350V080 9999 SCT018 M05/M08 Q1031 WHT
Observed Flight Rules
Feb-26 @ 02:55 UTC
(26 minutes ago)
VFR
Wind Visibility
30° at 10 knots 10,000+ meters
Clouds
  • Scattered at 1,800' AGL
Temperature Dewpoint
-5°C / 23°F -8°C / 18°F
Humidity Altimeter Pressure
80% 30.44" Hg 1031 hPa